Time;durP1;ratioP1;P1;durP2;ratioP2;P2;SDS_P1;SDS_P2;PMS_P1;PMS_P2;Temp;Humidity;BMP_temperature;BMP_pressure;BME280_temperature;BME280_humidity;BME280_pressure;Samples;Min_cycle;Max_cycle;Signal;HPM_P1;HPM_P2
2023/04/28 00:01:39;;;;;;;;;;;14.30;51.40;;;10.06;94.03;95365.06;5013860;28;19912;-49
2023/04/28 00:04:05;;;;;;;;;;;14.30;51.40;;;10.00;94.53;95366.13;5013427;28;19958;-49
2023/04/28 00:06:31;;;;;;;;;;;14.40;51.60;;;10.05;94.60;95360.00;4998003;28;19909;-49
2023/04/28 00:08:56;;;;;;;;;;;14.40;51.60;;;10.06;94.01;95361.59;4993986;28;19911;-50
2023/04/28 00:11:22;;;;;;;;;;;14.30;51.60;;;10.03;94.61;95368.25;4997871;28;20268;-49
2023/04/28 00:13:48;;;;;;;;;;;14.40;51.70;;;10.13;95.33;95364.81;5013348;28;19909;-49
2023/04/28 00:16:13;;;;;;;;;;;14.40;51.80;;;10.12;95.24;95360.53;5013519;28;20436;-50
2023/04/28 00:18:39;;;;;;;;;;;14.40;51.80;;;10.12;94.87;95366.66;4980955;28;19909;-48
2023/04/28 00:21:05;;;;;;;;;;;14.40;51.80;;;10.22;94.18;95359.75;4974675;28;20380;-47
2023/04/28 00:23:31;;;;;;;;;;;14.50;51.90;;;10.22;93.92;95352.56;4973707;28;19959;-49
2023/04/28 00:25:56;;;;;;;;;;;14.50;52.00;;;10.24;93.43;95353.06;4974103;28;20001;-48
2023/04/28 00:28:22;;;;;;;;;;;14.60;52.00;;;10.20;94.00;95344.81;4974239;28;19910;-49
2023/04/28 00:30:48;;;;;;;;;;;14.60;52.00;;;10.23;93.38;95351.47;4990202;28;19909;-51
2023/04/28 00:33:14;;;;;;;;;;;14.60;52.00;;;10.27;93.54;95349.09;4993282;28;19909;-48
2023/04/28 00:35:41;;;;;;;;;;;14.60;52.10;;;10.30;92.97;95356.56;4988117;28;19910;-47
2023/04/28 00:38:07;;;;;;;;;;;14.60;52.10;;;10.33;92.30;95353.38;4991997;28;19921;-48
2023/04/28 00:40:37;;;;;;;;;;;14.60;52.10;;;10.33;93.23;95351.50;4993326;28;20276;-47
2023/04/28 00:43:04;;;;;;;;;;;14.70;52.20;;;10.36;93.68;95350.97;4992831;28;19913;-49
2023/04/28 00:45:31;;;;;;;;;;;14.70;52.20;;;10.38;93.13;95348.84;4992872;28;19913;-49
2023/04/28 00:47:58;;;;;;;;;;;14.70;52.20;;;10.39;93.21;95346.97;4991861;28;20292;-47
2023/04/28 00:50:25;;;;;;;;;;;14.70;52.20;;;10.44;92.32;95346.97;4993034;28;19909;-47
2023/04/28 00:52:51;;;;;;;;;;;14.70;52.20;;;10.46;92.22;95338.69;4990699;28;19992;-47
2023/04/28 00:55:18;;;;;;;;;;;14.70;52.30;;;10.45;91.82;95339.78;4992829;28;19917;-47
2023/04/28 00:57:45;;;;;;;;;;;14.70;52.30;;;10.46;91.67;95336.81;4992752;28;20388;-47
2023/04/28 01:00:11;;;;;;;;;;;14.80;52.30;;;10.50;91.46;95350.41;4987409;28;20005;-47
2023/04/28 01:02:38;;;;;;;;;;;14.80;52.30;;;10.50;90.77;95337.09;4971888;28;20376;-47
2023/04/28 01:05:04;;;;;;;;;;;14.80;52.40;;;10.56;90.66;95333.34;4975585;28;19925;-48
2023/04/28 01:07:30;;;;;;;;;;;14.80;52.30;;;10.56;91.11;95333.34;4992930;28;19913;-49
2023/04/28 01:09:56;;;;;;;;;;;14.90;53.00;;;10.58;90.92;95333.88;4992787;28;19959;-47
2023/04/28 01:12:22;;;;;;;;;;;14.90;52.40;;;10.59;91.05;95338.13;5004360;28;19947;-51
2023/04/28 01:14:49;;;;;;;;;;;14.90;52.40;;;10.63;91.13;95329.34;5012469;28;19909;-47
2023/04/28 01:17:16;;;;;;;;;;;14.90;52.40;;;10.68;90.79;95339.19;5026348;28;19909;-46
2023/04/28 01:19:42;;;;;;;;;;;15.00;52.50;;;10.67;90.22;95334.94;5012325;28;19909;-47
2023/04/28 01:22:10;;;;;;;;;;;15.00;52.40;;;10.72;88.16;95339.44;5012013;28;19928;-48
2023/04/28 01:24:36;;;;;;;;;;;15.00;52.40;;;10.78;89.43;95335.69;4996488;28;19956;-48
2023/04/28 01:27:01;;;;;;;;;;;15.00;53.00;;;10.80;89.83;95341.53;4992622;28;19937;-48
2023/04/28 01:29:27;;;;;;;;;;;15.10;52.50;;;10.80;89.94;95339.69;4997464;28;19913;-51
2023/04/28 01:31:53;;;;;;;;;;;15.10;52.50;;;10.80;89.08;95346.88;5011740;28;19913;-48
2023/04/28 01:34:19;;;;;;;;;;;15.10;52.50;;;10.82;89.50;95358.06;5012189;28;19962;-48
2023/04/28 01:36:45;;;;;;;;;;;15.20;52.50;;;10.82;88.54;95377.50;4994703;28;19909;-49
2023/04/28 01:39:10;;;;;;;;;;;15.20;52.60;;;10.88;87.35;95381.75;4992977;28;19959;-51
2023/04/28 01:41:36;;;;;;;;;;;15.20;52.70;;;10.98;88.17;95378.25;4991280;28;19962;-46
2023/04/28 01:44:02;;;;;;;;;;;15.20;52.80;;;11.04;88.96;95384.38;5007450;28;19937;-48
2023/04/28 01:46:28;;;;;;;;;;;15.20;52.80;;;11.03;89.17;95372.94;4992579;28;19917;-48
2023/04/28 01:48:54;;;;;;;;;;;15.20;52.70;;;11.01;89.92;95368.94;4991476;28;19910;-47
2023/04/28 01:51:19;;;;;;;;;;;15.20;52.80;;;10.92;93.82;95365.22;4992249;28;19917;-47
2023/04/28 01:53:45;;;;;;;;;;;15.20;52.80;;;10.91;94.66;95356.44;4982957;28;20270;-49
2023/04/28 01:56:11;;;;;;;;;;;15.20;52.90;;;10.82;95.39;95353.53;4972340;28;19910;-47
2023/04/28 01:58:37;;;;;;;;;;;15.10;52.90;;;10.79;95.84;95348.75;4972625;28;19921;-47
2023/04/28 02:01:03;;;;;;;;;;;15.10;53.00;;;10.78;96.50;95341.00;4971787;28;20321;-46
2023/04/28 02:03:29;;;;;;;;;;;15.00;53.10;;;10.74;97.28;95338.09;4972725;28;20365;-47
2023/04/28 02:05:55;;;;;;;;;;;15.00;53.20;;;10.70;97.64;95329.06;4981160;28;19921;-46
2023/04/28 02:08:21;;;;;;;;;;;14.90;53.20;;;10.65;98.12;95327.22;4991757;28;19925;-47
2023/04/28 02:10:46;;;;;;;;;;;14.90;53.30;;;10.58;98.98;95323.22;4991421;28;19916;-50
2023/04/28 02:13:12;;;;;;;;;;;14.90;53.40;;;10.56;99.13;95328.84;5013725;28;19974;-47
2023/04/28 02:15:42;;;;;;;;;;;14.80;53.50;;;10.52;100.00;95338.41;5015176;28;19963;-47
2023/04/28 02:18:09;;;;;;;;;;;14.80;53.60;;;10.43;99.84;95340.03;5002784;28;19910;-47
2023/04/28 02:20:35;;;;;;;;;;;14.80;53.80;;;10.42;100.00;95344.56;4996290;28;20021;-47
2023/04/28 02:23:01;;;;;;;;;;;14.70;53.90;;;10.44;100.00;95348.84;4994719;28;20029;-47
2023/04/28 02:25:26;;;;;;;;;;;14.70;54.00;;;10.45;100.00;95337.13;4995871;28;19913;-47
2023/04/28 02:27:52;;;;;;;;;;;14.70;54.10;;;10.42;100.00;95338.44;4995898;28;20500;-47
2023/04/28 02:30:18;;;;;;;;;;;14.70;54.20;;;10.38;100.00;95335.53;4994778;28;19999;-47
2023/04/28 02:32:44;;;;;;;;;;;14.70;54.20;;;10.35;100.00;95317.44;4995677;28;20036;-47
2023/04/28 02:35:09;;;;;;;;;;;14.70;54.30;;;10.37;100.00;95325.94;4994872;28;19932;-47
2023/04/28 02:37:35;;;;;;;;;;;14.60;54.30;;;10.34;100.00;95341.63;4981841;28;19916;-47
2023/04/28 02:40:01;;;;;;;;;;;14.60;54.40;;;10.34;100.00;95333.66;4985230;28;19913;-47
2023/04/28 02:42:27;;;;;;;;;;;14.60;54.60;;;10.37;100.00;95349.91;4994269;28;19963;-47
2023/04/28 02:44:52;;;;;;;;;;;14.60;54.60;;;10.42;100.00;95347.22;4994214;28;19913;-46
2023/04/28 02:47:18;;;;;;;;;;;14.60;54.70;;;10.45;100.00;95359.22;4998442;28;19913;-48
2023/04/28 02:49:44;;;;;;;;;;;14.70;54.90;;;10.47;100.00;95345.66;5014901;28;20396;-49
2023/04/28 02:52:10;;;;;;;;;;;14.70;54.90;;;10.40;100.00;95341.38;5015304;28;19909;-47
2023/04/28 02:54:36;;;;;;;;;;;14.70;54.90;;;10.34;100.00;95334.47;4997590;28;19917;-48
2023/04/28 02:57:03;;;;;;;;;;;14.70;55.00;;;10.36;100.00;95350.97;4995057;28;19963;-46
2023/04/28 02:59:29;;;;;;;;;;;14.70;55.00;;;10.40;100.00;95346.72;4999755;28;19909;-47
2023/04/28 03:01:55;;;;;;;;;;;14.70;55.20;;;10.46;100.00;95354.69;5014967;28;19912;-47
2023/04/28 03:04:21;;;;;;;;;;;14.70;55.20;;;10.47;100.00;95356.28;5014505;28;19913;-47
2023/04/28 03:06:47;;;;;;;;;;;14.80;55.40;;;10.49;100.00;95359.47;4997415;28;19957;-47
2023/04/28 03:09:13;;;;;;;;;;;14.80;55.40;;;10.49;100.00;95362.91;4995066;28;19909;-51
2023/04/28 03:11:40;;;;;;;;;;;14.80;55.50;;;10.51;100.00;95371.44;4994295;28;19913;-47
2023/04/28 03:14:06;;;;;;;;;;;14.80;55.50;;;10.49;100.00;95360.25;4995203;28;19916;-51
2023/04/28 03:16:32;;;;;;;;;;;14.80;55.60;;;10.49;100.00;95370.13;4995005;28;19910;-48
2023/04/28 03:18:58;;;;;;;;;;;14.80;55.60;;;10.42;100.00;95346.44;4994082;28;19909;-47
2023/04/28 03:21:26;;;;;;;;;;;14.80;55.60;;;10.40;100.00;95348.56;4994484;28;20353;-47
2023/04/28 03:23:52;;;;;;;;;;;14.70;55.70;;;10.41;100.00;95345.63;5002097;28;19916;-47
2023/04/28 03:26:18;;;;;;;;;;;14.70;55.80;;;10.38;100.00;95356.81;5014336;28;19909;-48
2023/04/28 03:28:44;;;;;;;;;;;14.60;55.80;;;10.37;100.00;95365.88;5014320;28;19909;-52
2023/04/28 03:31:10;;;;;;;;;;;14.60;55.90;;;10.40;100.00;95369.84;4994421;28;20008;-49
2023/04/28 03:33:36;;;;;;;;;;;14.60;56.70;;;10.37;100.00;95373.06;4994838;28;19913;-47
2023/04/28 03:36:01;;;;;;;;;;;14.60;56.20;;;10.38;100.00;95364.03;4992317;28;19916;-48
2023/04/28 03:38:27;;;;;;;;;;;14.60;56.30;;;10.35;100.00;95360.03;4975029;28;19914;-46
2023/04/28 03:40:53;;;;;;;;;;;14.60;56.30;;;10.32;100.00;95355.22;4974328;28;20403;-48
2023/04/28 03:43:19;;;;;;;;;;;14.60;56.30;;;10.22;100.00;95343.78;4975165;28;19917;-47
2023/04/28 03:45:45;;;;;;;;;;;14.60;56.30;;;10.26;100.00;95340.31;4974880;28;19913;-47
2023/04/28 03:48:11;;;;;;;;;;;14.50;56.40;;;10.24;100.00;95336.31;4975958;28;19909;-47
2023/04/28 03:50:39;;;;;;;;;;;14.50;56.50;;;10.24;100.00;95333.63;4994386;28;19920;-49
2023/04/28 03:53:05;;;;;;;;;;;14.50;56.60;;;10.14;100.00;95332.59;4993318;28;19917;-47
2023/04/28 03:55:31;;;;;;;;;;;14.40;56.70;;;10.15;100.00;95341.34;4994140;28;20361;-47
2023/04/28 03:57:57;;;;;;;;;;;14.40;56.80;;;10.08;100.00;95346.16;4993006;28;19917;-45
2023/04/28 04:00:25;;;;;;;;;;;14.40;56.90;;;10.17;100.00;95348.03;4988462;28;19928;-59
2023/04/28 04:02:51;;;;;;;;;;;14.40;57.00;;;10.19;100.00;95345.91;4991020;28;20267;-47
2023/04/28 04:05:17;;;;;;;;;;;14.40;57.20;;;10.22;100.00;95365.88;4992730;28;19917;-47
2023/04/28 04:07:43;;;;;;;;;;;14.30;57.20;;;10.24;100.00;95368.25;4993551;28;19992;-47
2023/04/28 04:10:09;;;;;;;;;;;14.30;57.30;;;10.28;100.00;95366.66;4994084;28;19910;-49
2023/04/28 04:12:35;;;;;;;;;;;14.40;57.40;;;10.29;100.00;95365.63;4992968;28;19917;-48
2023/04/28 04:15:01;;;;;;;;;;;14.40;57.50;;;10.28;100.00;95362.16;4994122;28;19910;-47
2023/04/28 04:17:26;;;;;;;;;;;14.40;57.60;;;10.29;100.00;95365.63;4992461;28;20046;-47
2023/04/28 04:19:52;;;;;;;;;;;14.40;57.60;;;10.29;100.00;95369.06;4993582;28;19909;-47
2023/04/28 04:22:18;;;;;;;;;;;14.40;57.60;;;10.30;100.00;95377.84;4993289;28;19924;-49
2023/04/28 04:24:43;;;;;;;;;;;14.40;57.70;;;10.28;100.00;95372.00;4992201;28;19913;-48
2023/04/28 04:27:10;;;;;;;;;;;14.40;57.70;;;10.30;100.00;95365.34;4993829;28;20273;-49
2023/04/28 04:29:36;;;;;;;;;;;14.50;57.80;;;10.32;100.00;95362.44;4992708;28;19990;-47
2023/04/28 04:32:02;;;;;;;;;;;14.50;57.80;;;10.32;100.00;95373.06;4992933;28;19909;-49
2023/04/28 04:34:28;;;;;;;;;;;14.50;57.90;;;10.31;100.00;95380.28;4993153;28;19915;-47
2023/04/28 04:36:54;;;;;;;;;;;14.50;58.00;;;10.34;100.00;95381.56;4990738;28;19909;-48
2023/04/28 04:39:19;;;;;;;;;;;14.50;58.10;;;10.38;100.00;95380.00;4991664;28;19909;-47
2023/04/28 04:41:45;;;;;;;;;;;14.50;58.10;;;10.38;100.00;95380.78;4991738;28;19921;-47
2023/04/28 04:44:11;;;;;;;;;;;14.50;58.20;;;10.39;100.00;95378.91;4993349;28;20392;-47
2023/04/28 04:46:37;;;;;;;;;;;14.50;58.20;;;10.39;100.00;95382.38;4992773;28;19951;-47
2023/04/28 04:49:03;;;;;;;;;;;14.60;58.20;;;10.40;100.00;95369.84;4991883;28;19910;-49
2023/04/28 04:51:28;;;;;;;;;;;14.60;58.20;;;10.40;100.00;95384.00;4992856;28;19916;-47
2023/04/28 04:53:54;;;;;;;;;;;14.60;58.30;;;10.40;100.00;95383.16;4992152;28;19909;-47
2023/04/28 04:56:20;;;;;;;;;;;14.60;58.40;;;10.40;100.00;95391.97;4992893;28;19959;-47
2023/04/28 04:58:46;;;;;;;;;;;14.60;59.00;;;10.44;100.00;95396.78;4992881;28;20004;-47
2023/04/28 05:01:12;;;;;;;;;;;14.60;58.40;;;10.42;100.00;95399.69;4991738;28;20327;-49
2023/04/28 05:03:38;;;;;;;;;;;14.60;58.50;;;10.42;100.00;95395.16;4992849;28;20012;-50
2023/04/28 05:06:03;;;;;;;;;;;14.60;58.50;;;10.41;100.00;95393.56;4991839;28;20000;-47
2023/04/28 05:08:29;;;;;;;;;;;14.60;58.50;;;10.45;100.00;95395.69;4991081;28;19909;-50
2023/04/28 05:10:55;;;;;;;;;;;14.60;58.60;;;10.42;100.00;95394.38;4990848;28;19940;-47
2023/04/28 05:13:21;;;;;;;;;;;14.60;58.60;;;10.41;100.00;95409.53;4973549;28;19909;-47
2023/04/28 05:15:46;;;;;;;;;;;14.60;58.60;;;10.33;100.00;95406.59;4973362;28;20364;-47
2023/04/28 05:18:12;;;;;;;;;;;14.60;58.60;;;10.38;100.00;95409.28;4975490;28;19910;-48
2023/04/28 05:20:39;;;;;;;;;;;14.60;58.70;;;10.41;100.00;95419.41;5012055;28;19909;-46
2023/04/28 05:23:05;;;;;;;;;;;14.60;58.70;;;10.40;100.00;95418.59;5006660;28;19971;-47
2023/04/28 05:25:31;;;;;;;;;;;14.60;58.80;;;10.41;100.00;95417.53;4973328;28;20342;-47
2023/04/28 05:27:57;;;;;;;;;;;14.60;58.80;;;10.42;100.00;95408.47;4973168;28;19921;-47
2023/04/28 05:30:23;;;;;;;;;;;14.60;59.50;;;10.43;100.00;95417.25;4984742;28;19914;-48
2023/04/28 05:32:49;;;;;;;;;;;14.60;59.00;;;10.42;100.00;95410.34;4992432;28;19920;-47
2023/04/28 05:35:15;;;;;;;;;;;14.60;59.00;;;10.44;100.00;95407.44;4990041;28;19917;-48
2023/04/28 05:37:42;;;;;;;;;;;14.70;59.10;;;10.48;100.00;95424.44;4992821;28;19916;-48
2023/04/28 05:40:08;;;;;;;;;;;14.70;59.10;;;10.50;100.00;95431.13;4992394;28;19920;-47
2023/04/28 05:42:34;;;;;;;;;;;14.70;59.20;;;10.50;100.00;95438.28;4977775;28;20359;-48
2023/04/28 05:45:01;;;;;;;;;;;14.70;59.20;;;10.49;100.00;95436.69;4972805;28;19957;-49
2023/04/28 05:47:28;;;;;;;;;;;14.70;59.20;;;10.50;100.00;95424.97;4976582;28;19913;-47
2023/04/28 05:49:54;;;;;;;;;;;14.80;59.20;;;10.51;100.00;95405.28;5000115;28;19952;-48
2023/04/28 05:52:20;;;;;;;;;;;14.80;59.30;;;10.50;100.00;95406.31;4992159;28;20268;-48
2023/04/28 05:54:45;;;;;;;;;;;14.80;59.20;;;10.49;100.00;95418.84;4975190;28;19909;-55
2023/04/28 05:57:11;;;;;;;;;;;14.80;59.30;;;10.50;100.00;95393.84;4983407;28;19944;-52
2023/04/28 05:59:37;;;;;;;;;;;14.80;59.30;;;10.48;100.00;95411.13;4976462;28;19921;-49
2023/04/28 06:02:03;;;;;;;;;;;14.80;59.30;;;10.46;100.00;95411.38;4991332;28;20282;-48
2023/04/28 06:04:29;;;;;;;;;;;14.70;59.30;;;10.44;100.00;95416.22;4991109;28;20012;-47
2023/04/28 06:06:54;;;;;;;;;;;14.70;59.40;;;10.44;100.00;95418.88;4988960;28;19909;-52
2023/04/28 06:09:20;;;;;;;;;;;14.70;59.50;;;10.47;100.00;95428.97;4991286;28;19954;-47
2023/04/28 06:11:46;;;;;;;;;;;14.70;60.20;;;10.46;100.00;95421.25;4990742;28;19959;-54
2023/04/28 06:14:11;;;;;;;;;;;14.70;59.60;;;10.47;100.00;95452.94;4992130;28;19956;-48
2023/04/28 06:16:37;;;;;;;;;;;14.70;59.70;;;10.41;100.00;95414.06;4992829;28;19960;-47
2023/04/28 06:19:03;;;;;;;;;;;14.60;59.70;;;10.45;100.00;95430.31;4992809;28;19966;-47
2023/04/28 06:21:31;;;;;;;;;;;14.60;59.80;;;10.40;100.00;95415.13;5004285;23;19967;-50
2023/04/28 06:23:56;;;;;;;;;;;14.60;59.80;;;10.37;100.00;95419.13;4988002;28;19914;-47
2023/04/28 06:26:23;;;;;;;;;;;14.60;59.80;;;10.41;100.00;95414.88;4990560;28;19940;-51
2023/04/28 06:28:50;;;;;;;;;;;14.60;59.90;;;10.40;100.00;95407.97;4990386;28;19984;-56
2023/04/28 06:31:15;;;;;;;;;;;14.60;59.90;;;10.42;100.00;95397.81;4985959;28;19952;-50
2023/04/28 06:33:41;;;;;;;;;;;14.60;60.00;;;10.46;100.00;95398.06;4972249;28;20382;-48
2023/04/28 06:36:07;;;;;;;;;;;14.60;60.00;;;10.44;100.00;95391.44;4971352;28;19937;-50
2023/04/28 06:38:33;;;;;;;;;;;14.70;60.10;;;10.45;100.00;95382.38;4972575;28;19910;-49
2023/04/28 06:40:59;;;;;;;;;;;14.70;60.20;;;10.46;100.00;95390.09;4971107;28;20376;-49
2023/04/28 06:43:25;;;;;;;;;;;14.70;60.20;;;10.42;100.00;95384.50;4971808;28;19910;-50
2023/04/28 06:45:51;;;;;;;;;;;14.60;60.20;;;10.48;100.00;95385.31;4972228;28;19937;-46
2023/04/28 06:48:17;;;;;;;;;;;14.70;60.30;;;10.53;100.00;95385.31;4970862;28;19999;-49
2023/04/28 06:50:42;;;;;;;;;;;14.70;60.40;;;10.57;100.00;95393.56;4971062;28;19909;-52
2023/04/28 06:53:08;;;;;;;;;;;14.70;60.40;;;10.57;100.00;95402.34;4971026;28;19968;-50
2023/04/28 06:55:34;;;;;;;;;;;14.70;60.50;;;10.58;100.00;95395.13;4971997;28;19948;-51
2023/04/28 06:58:00;;;;;;;;;;;14.80;60.60;;;10.59;100.00;95386.91;4987286;28;19960;-53
2023/04/28 07:00:26;;;;;;;;;;;14.80;60.60;;;10.63;100.00;95379.16;4986695;28;20368;-51
2023/04/28 07:02:51;;;;;;;;;;;14.80;60.60;;;10.69;100.00;95382.63;4994457;28;19914;-48
2023/04/28 07:05:17;;;;;;;;;;;14.90;60.70;;;10.74;100.00;95390.59;4991022;28;20387;-49
2023/04/28 07:07:44;;;;;;;;;;;14.90;60.60;;;10.75;100.00;95395.66;4975775;28;20406;-49
2023/04/28 07:10:10;;;;;;;;;;;15.00;60.70;;;10.79;100.00;95393.25;4990717;28;19952;-49
2023/04/28 07:12:36;;;;;;;;;;;15.10;60.60;;;10.83;100.00;95384.44;4974751;28;19914;-50
2023/04/28 07:15:01;;;;;;;;;;;15.20;60.60;;;10.85;100.00;95370.84;4975581;28;19913;-48
2023/04/28 07:17:27;;;;;;;;;;;15.30;60.40;;;10.94;100.00;95374.56;4974488;28;19925;-48
2023/04/28 07:19:53;;;;;;;;;;;15.50;60.30;;;11.05;100.00;95378.75;4975702;28;20060;-48
2023/04/28 07:22:18;;;;;;;;;;;15.60;60.20;;;11.04;100.00;95387.84;4975227;28;19963;-51
2023/04/28 07:24:44;;;;;;;;;;;15.60;60.10;;;11.07;100.00;95384.63;4974942;28;19914;-56
2023/04/28 07:27:10;;;;;;;;;;;15.70;60.00;;;11.01;100.00;95372.41;4975407;28;20387;-49
2023/04/28 07:29:36;;;;;;;;;;;15.80;60.90;;;11.06;100.00;95369.72;4980214;28;19909;-48
2023/04/28 07:32:07;;;;;;;;;;;15.80;60.00;;;11.16;100.00;95373.41;4994538;28;20431;-49
2023/04/28 07:34:34;;;;;;;;;;;15.90;60.10;;;11.16;100.00;95392.88;4994925;28;19909;-48
2023/04/28 07:37:01;;;;;;;;;;;15.80;60.00;;;11.24;100.00;95386.16;4976745;28;19925;-49
2023/04/28 07:39:28;;;;;;;;;;;15.80;60.00;;;11.21;100.00;95400.84;4975316;28;19910;-48
2023/04/28 07:41:53;;;;;;;;;;;15.80;60.10;;;11.20;100.00;95395.78;4989063;28;19913;-49
2023/04/28 07:44:19;;;;;;;;;;;15.80;60.90;;;11.22;100.00;95385.63;4974916;28;19920;-53
2023/04/28 07:46:45;;;;;;;;;;;15.80;60.10;;;11.20;100.00;95391.25;4974877;28;19914;-51
2023/04/28 07:49:11;;;;;;;;;;;15.80;60.80;;;11.19;100.00;95394.16;4974381;28;19909;-54
2023/04/28 07:51:36;;;;;;;;;;;15.80;60.20;;;11.15;100.00;95401.13;4974911;28;19917;-51
2023/04/28 07:54:02;;;;;;;;;;;15.80;60.20;;;11.16;100.00;95398.22;4973898;28;19917;-54
2023/04/28 07:56:28;;;;;;;;;;;15.70;60.20;;;11.17;100.00;95383.00;4974620;28;19993;-51
2023/04/28 07:58:55;;;;;;;;;;;15.70;61.00;;;11.14;100.00;95400.34;4988672;28;19910;-54
2023/04/28 08:01:21;;;;;;;;;;;15.80;60.30;;;11.03;100.00;95404.09;4974603;28;19913;-50
2023/04/28 08:03:47;;;;;;;;;;;15.70;60.30;;;10.99;100.00;95414.50;4974772;28;19917;-56
2023/04/28 08:06:13;;;;;;;;;;;15.60;60.40;;;10.98;100.00;95417.44;4973675;28;19956;-55
2023/04/28 08:08:39;;;;;;;;;;;15.50;60.60;;;10.96;100.00;95409.72;4974584;28;19992;-54
2023/04/28 08:11:05;;;;;;;;;;;15.40;60.70;;;10.94;100.00;95413.75;4988163;28;20336;-54
2023/04/28 08:13:32;;;;;;;;;;;15.40;60.80;;;10.92;100.00;95406.00;4974293;28;20044;-54
2023/04/28 08:16:00;;;;;;;;;;;15.30;60.90;;;10.94;100.00;95416.41;4974780;28;20364;-55
2023/04/28 08:18:27;;;;;;;;;;;15.30;61.00;;;10.86;100.00;95426.53;4976723;28;19913;-55
2023/04/28 08:20:53;;;;;;;;;;;15.20;61.10;;;10.87;100.00;95430.81;5008609;28;19931;-52
2023/04/28 08:23:19;;;;;;;;;;;15.20;61.20;;;10.78;100.00;95435.09;4984353;28;19918;-53
2023/04/28 08:25:46;;;;;;;;;;;15.20;61.20;;;10.76;100.00;95447.88;4974167;28;20398;-54
2023/04/28 08:28:13;;;;;;;;;;;15.10;61.30;;;10.81;100.00;95452.38;4974002;28;19944;-51
2023/04/28 08:30:39;;;;;;;;;;;15.10;61.40;;;10.85;100.00;95446.25;4973250;28;20383;-52
2023/04/28 08:33:05;;;;;;;;;;;15.10;61.50;;;10.88;100.00;95452.91;4973763;28;19909;-52
2023/04/28 08:35:31;;;;;;;;;;;15.10;61.60;;;10.83;100.00;95436.94;4973336;28;19936;-51
2023/04/28 08:37:57;;;;;;;;;;;15.20;61.70;;;10.90;100.00;95434.78;4988882;28;19913;-50
2023/04/28 08:40:24;;;;;;;;;;;15.30;61.60;;;10.97;100.00;95427.31;4973705;28;19909;-54
2023/04/28 08:42:50;;;;;;;;;;;15.40;61.50;;;11.08;100.00;95438.75;4982011;28;19910;-53
2023/04/28 08:45:16;;;;;;;;;;;15.50;61.50;;;10.99;100.00;95451.03;4972479;28;19918;-52
2023/04/28 08:47:46;;;;;;;;;;;15.50;61.40;;;11.09;100.00;95454.47;4972414;28;19921;-57
2023/04/28 08:50:13;;;;;;;;;;;15.60;61.50;;;11.15;100.00;95452.56;4972958;28;20503;-54
2023/04/28 08:52:41;;;;;;;;;;;15.60;61.50;;;11.19;100.00;95461.66;4973542;28;19910;-54
2023/04/28 08:55:11;;;;;;;;;;;15.60;61.50;;;11.28;100.00;95460.03;4972812;28;19917;-53
2023/04/28 08:57:43;;;;;;;;;;;15.70;61.50;;;11.24;100.00;95460.81;4973636;28;19960;-53
2023/04/28 09:00:11;;;;;;;;;;;15.80;62.30;;;11.32;100.00;95455.75;4972914;28;19916;-55
2023/04/28 09:02:40;;;;;;;;;;;15.90;61.50;;;11.36;100.00;95458.66;4973220;28;19917;-49
2023/04/28 09:05:13;;;;;;;;;;;16.00;61.30;;;11.40;100.00;95457.03;4973637;28;19957;-52
2023/04/28 09:07:40;;;;;;;;;;;16.00;61.20;;;11.49;100.00;95451.94;4992842;28;19913;-54
2023/04/28 09:10:19;;;;;;;;;;;16.20;61.20;;;11.56;100.00;95453.25;4983151;28;20036;-55
2023/04/28 09:12:48;;;;;;;;;;;16.30;61.00;;;11.60;100.00;95458.84;4972120;28;20300;-55
2023/04/28 09:15:40;;;;;;;;;;;16.40;61.00;;;11.64;100.00;95451.06;4973389;28;19940;-52
2023/04/28 09:18:07;;;;;;;;;;;16.40;61.00;;;11.66;100.00;95451.59;4972454;28;19910;-54
2023/04/28 09:20:35;;;;;;;;;;;16.30;61.00;;;11.75;100.00;95460.63;4973401;28;19937;-51
2023/04/28 09:23:20;;;;;;;;;;;16.30;61.20;;;11.75;100.00;95458.78;4971709;28;20614;-57
2023/04/28 09:26:09;;;;;;;;;;;16.30;61.20;;;11.73;100.00;95462.78;4973143;28;19921;-56
2023/04/28 09:28:36;;;;;;;;;;;16.30;61.30;;;11.73;100.00;95465.44;4986362;28;19916;-56
2023/04/28 09:31:03;;;;;;;;;;;16.30;61.30;;;11.72;100.00;95461.97;4972373;28;19916;-58
2023/04/28 09:33:28;;;;;;;;;;;16.30;61.30;;;11.76;100.00;95460.34;4973120;28;19909;-57
2023/04/28 09:35:54;;;;;;;;;;;16.30;61.30;;;11.81;100.00;95463.00;4972638;28;19963;-55
2023/04/28 09:38:22;;;;;;;;;;;16.40;61.40;;;11.85;100.00;95470.50;4973184;28;19909;-58
2023/04/28 09:41:00;;;;;;;;;;;16.40;61.30;;;11.88;100.00;95469.94;4973056;28;19910;-56
2023/04/28 09:43:32;;;;;;;;;;;16.40;61.20;;;11.85;100.00;95465.16;4973151;28;19913;-56
2023/04/28 09:46:04;;;;;;;;;;;16.40;61.20;;;11.88;100.00;95461.94;4973335;28;19920;-55
2023/04/28 09:48:36;;;;;;;;;;;16.40;62.00;;;11.88;100.00;95456.59;4971963;28;19909;-56
2023/04/28 09:51:05;;;;;;;;;;;16.50;61.30;;;11.90;100.00;95465.13;4947417;28;22558;-58
2023/04/28 09:53:33;;;;;;;;;;;16.50;61.30;;;11.89;100.00;95458.19;4967512;28;20011;-57
2023/04/28 09:56:02;;;;;;;;;;;16.50;61.20;;;11.91;100.00;95464.84;4953246;28;20419;-54
2023/04/28 09:58:30;;;;;;;;;;;16.60;61.20;;;11.93;100.00;95465.34;4968248;28;19914;-57
2023/04/28 10:01:00;;;;;;;;;;;16.60;62.00;;;11.94;100.00;95468.81;4969569;28;19910;-58
2023/04/28 10:03:29;;;;;;;;;;;16.50;61.10;;;11.86;100.00;95467.53;4972643;28;19910;-56
2023/04/28 10:05:57;;;;;;;;;;;16.50;61.10;;;11.87;100.00;95461.13;4971949;28;20008;-54
2023/04/28 10:08:26;;;;;;;;;;;16.60;61.20;;;11.89;100.00;95463.53;4972799;28;19937;-53
2023/04/28 10:10:53;;;;;;;;;;;16.60;61.10;;;11.94;100.00;95466.97;4972211;28;20268;-51
2023/04/28 10:13:23;;;;;;;;;;;16.70;61.10;;;11.89;100.00;95471.53;4972557;28;19917;-50
2023/04/28 10:15:53;;;;;;;;;;;16.70;61.10;;;11.84;100.00;95469.66;4972829;28;20289;-52
2023/04/28 10:18:23;;;;;;;;;;;16.70;61.20;;;11.88;100.00;95468.06;4972130;28;20008;-56
2023/04/28 10:20:57;;;;;;;;;;;16.60;61.20;;;11.88;100.00;95470.75;4972599;28;20004;-58
2023/04/28 10:23:53;;;;;;;;;;;16.60;61.30;;;11.93;100.00;95475.25;4971836;28;19922;-52
2023/04/28 10:26:22;;;;;;;;;;;16.60;61.40;;;11.98;100.00;95467.22;4972710;28;19913;-53
2023/04/28 10:28:51;;;;;;;;;;;16.60;61.40;;;12.01;100.00;95464.78;4971531;28;19917;-54
2023/04/28 10:31:22;;;;;;;;;;;16.70;61.50;;;12.11;100.00;95469.25;4972337;28;20040;-50
2023/04/28 10:33:48;;;;;;;;;;;16.70;61.40;;;12.19;100.00;95465.19;4989058;28;20027;-53
2023/04/28 10:36:45;;;;;;;;;;;16.80;61.30;;;12.25;100.00;95469.44;4975509;28;19909;-54
2023/04/28 10:39:11;;;;;;;;;;;17.00;61.30;;;12.29;100.00;95467.03;4976435;28;19952;-52
2023/04/28 10:41:37;;;;;;;;;;;17.00;61.20;;;12.25;100.00;95462.25;4975440;28;19910;-55
2023/04/28 10:44:35;;;;;;;;;;;17.10;61.10;;;12.36;100.00;95470.97;4976071;28;19910;-53
2023/04/28 10:47:08;;;;;;;;;;;17.20;61.10;;;12.37;100.00;95469.09;4963335;28;20004;-51
2023/04/28 10:49:58;;;;;;;;;;;17.20;61.00;;;12.43;100.00;95471.44;4976153;28;19922;-51
2023/04/28 10:52:33;;;;;;;;;;;17.40;60.90;;;12.54;100.00;95464.16;4976334;28;19957;-55
2023/04/28 10:55:40;;;;;;;;;;;17.50;60.70;;;12.66;100.00;95458.44;4973622;28;19953;-51
2023/04/28 10:58:15;;;;;;;;;;;17.60;61.40;;;12.78;100.00;95461.53;4976314;28;20303;-54
2023/04/28 11:00:44;;;;;;;;;;;17.80;60.50;;;12.91;100.00;95460.91;4975293;28;19945;-52
2023/04/28 11:03:52;;;;;;;;;;;18.00;60.40;;;12.99;100.00;95466.72;4975792;28;19909;-53
2023/04/28 11:06:35;;;;;;;;;;;18.20;60.20;;;13.09;100.00;95463.94;4975716;28;20474;-58
2023/04/28 11:09:18;;;;;;;;;;;18.40;60.00;;;13.19;100.00;95464.66;4975977;28;19913;-56
2023/04/28 11:11:59;;;;;;;;;;;18.60;59.90;;;13.31;100.00;95464.25;4975443;28;19975;-53
2023/04/28 11:14:25;;;;;;;;;;;18.80;59.80;;;13.52;100.00;95461.38;4975642;28;19910;-55